Accueil
METAR-TAF:

METAR-TAF

Aéroports :

Wittering, Angleterre

latitude: 52-37N, longitude: 000-28W, altitude: 84 m

Observation

Le bulletin a été fait il y a 50 minutes, à 05:50 UTC
Vent 7 kt de ouest
Température 3°C
Humidité 87%
Pression 1022 hPa
Visibilité: 9000 m
brume sèche

METAR: EGXT 080550Z AUTO 28007KT 9000 HZ OVC070/// 03/01 Q1022

Heure: 06:40 (06:40 UTC)

Prévision

Le bulletin a été fait il y a 2 heures et 15 minutes, à 04:25 UTC
Prévision valable du 08 à 06 UTC au 08 à 15 UTC
Vent 5 kt de ouest
Visibilité: 6000 m
Nuages fragmentés à une hauteur de 4500 ft
brume sèche
Evoluant progressivement
du 08 à 06 UTC au 08 à 08 UTC
Visibilité 10 km ou plus
Probabilité 30%
du 08 à 13 UTC au 08 à 15 UTC
Nuages épars à une hauteur de 2400 ft
pluie faible

TAF: EGXT 080425Z 0806/0815 27005KT 6000 HZ BKN045 BECMG 0806/0808 9999 NSW PROB30 0813/0815 -RA SCT024

Observations et prévisions météorologiques de plus de 4000 aéroports (messages METAR et TAF).

Les stations disponibles sont représentées par des disques jaunes et rouges sur la carte.

Passer la souris dessus pour voir le nom de la station.

Cliquer dessus pour voir les observations et prévisions météorologiques.

Pour changer de carte: cliquez sur les boutons verts avec une croix noire pour zoomer, sur le bouton vert avec un tiret pour effectuer un zoom arrière, ou sur les flèches vertes pour les cartes adjacentes.


METAR-TAF: